Canton, Minnesota
Current Conditions -  °F | °C
As of 5:56 PM on Saturday 25 Oct 2014 (Local Time) from KFKA Reporting Station
Clear Clear  
Wind Chill: 56°   Ceiling: Unl
Heat Index: 56°   Visibility: 10mi
Dew Point: 29°   Wind: 12mph
Humidity: 36%   Direction: 310°NW
Pressure: 30.04"   Gusts: NA
Location:  43.53°N, 91.93°W
Report Text: KFKA 252256Z AUTO 31010KT 10SM CLR 14/M01 A3004 RMK AO2 T01351015
Loading
Personal Weather Stations






























Interactive Weather Map
Tropical Storm Tracking
New forecast layout! Learn more

10-Day Weather Forecast

Advertisements
Track Severe Weather on mobile